Time;durP1;ratioP1;P1;durP2;ratioP2;P2;SDS_P1;SDS_P2;PMS_P1;PMS_P2;Temp;Humidity;BMP_temperature;BMP_pressure;BME280_temperature;BME280_humidity;BME280_pressure;Samples;Min_cycle;Max_cycle;Signal;HPM_P1;HPM_P2
2022/05/29 00:00:13;;;;;;;4.83;2.60;;;;;;;12.69;57.62;96444.19;5013433;28;20675;-69
2022/05/29 00:02:38;;;;;;;3.83;1.67;;;;;;;12.68;58.10;96439.97;5012411;28;20187;-70
2022/05/29 00:05:05;;;;;;;2.97;1.50;;;;;;;12.79;57.96;96434.56;5012927;28;20256;-71
2022/05/29 00:07:30;;;;;;;4.23;1.70;;;;;;;12.80;57.92;96441.41;5012774;28;20194;-70
2022/05/29 00:09:56;;;;;;;2.53;1.67;;;;;;;12.63;58.60;96438.09;5012750;28;20543;-69
2022/05/29 00:12:22;;;;;;;1.87;1.60;;;;;;;12.72;59.81;96430.53;5012383;28;20182;-70
2022/05/29 00:14:49;;;;;;;4.80;2.73;;;;;;;12.62;69.13;96438.31;5012785;28;20211;-70
2022/05/29 00:17:16;;;;;;;2.60;2.10;;;;;;;12.29;70.46;96428.75;4994783;28;20191;-71
2022/05/29 00:19:41;;;;;;;3.07;2.13;;;;;;;12.07;75.87;96426.94;5012882;28;20314;-70
2022/05/29 00:22:10;;;;;;;2.63;2.10;;;;;;;11.91;72.38;96414.66;5012727;28;20267;-70
2022/05/29 00:24:36;;;;;;;2.50;2.00;;;;;;;11.95;71.96;96425.47;5012517;28;20195;-71
2022/05/29 00:27:02;;;;;;;5.13;1.80;;;;;;;11.96;70.87;96416.56;5012851;28;20628;-71
2022/05/29 00:29:28;;;;;;;3.63;2.10;;;;;;;11.96;71.01;96419.19;5012522;28;20635;-70
2022/05/29 00:31:54;;;;;;;3.40;2.23;;;;;;;11.88;69.38;96423.03;5012550;28;20191;-70
2022/05/29 00:34:19;;;;;;;6.80;2.50;;;;;;;11.89;69.65;96418.56;4999752;28;20200;-70
2022/05/29 00:36:45;;;;;;;5.13;2.50;;;;;;;11.78;69.50;96415.00;5013005;28;20189;-70
2022/05/29 00:39:14;;;;;;;2.53;2.20;;;;;;;11.87;71.08;96410.16;5011797;28;20274;-71
2022/05/29 00:41:40;;;;;;;3.60;2.00;;;;;;;11.96;70.35;96414.72;4997652;28;20218;-70
2022/05/29 00:44:16;;;;;;;8.03;2.47;;;;;;;11.93;70.72;96412.56;5012482;28;20225;-70
2022/05/29 00:46:54;;;;;;;4.47;2.30;;;;;;;11.96;70.45;96416.56;5000319;28;20191;-70
2022/05/29 00:49:27;;;;;;;3.83;2.20;;;;;;;12.03;68.91;96407.47;5012844;28;20175;-70
2022/05/29 00:52:05;;;;;;;3.17;1.77;;;;;;;11.99;68.67;96408.97;5012669;28;20167;-70
2022/05/29 00:54:37;;;;;;;4.77;2.20;;;;;;;11.92;66.94;96403.13;5012520;28;20241;-70
2022/05/29 00:57:03;;;;;;;3.70;1.97;;;;;;;11.92;66.99;96408.38;5012684;28;20334;-71
2022/05/29 00:59:31;;;;;;;4.20;2.27;;;;;;;11.91;66.36;96404.16;5012427;28;20603;-70
2022/05/29 01:02:01;;;;;;;2.87;2.03;;;;;;;11.98;66.52;96398.72;5012528;28;20679;-70
2022/05/29 01:04:26;;;;;;;4.23;2.30;;;;;;;11.80;67.07;96401.66;5012524;28;20187;-69
2022/05/29 01:06:53;;;;;;;3.57;2.40;;;;;;;11.87;65.54;96397.03;5012613;28;20187;-70
2022/05/29 01:09:19;;;;;;;3.30;2.20;;;;;;;11.84;65.38;96397.50;5012400;28;20237;-69
2022/05/29 01:12:09;;;;;;;4.20;2.10;;;;;;;11.82;65.34;96396.94;5012265;28;20575;-70
2022/05/29 01:14:48;;;;;;;3.23;2.10;;;;;;;11.79;65.42;96397.44;5012454;28;20202;-70
2022/05/29 01:17:32;;;;;;;3.20;2.10;;;;;;;11.89;65.27;96393.09;5012231;28;20241;-71
2022/05/29 01:20:19;;;;;;;2.83;1.90;;;;;;;11.94;65.91;96390.53;4985821;28;20241;-70
2022/05/29 01:23:07;;;;;;;6.07;2.03;;;;;;;11.96;65.94;96390.28;5012122;28;20182;-70
2022/05/29 01:25:44;;;;;;;2.07;1.83;;;;;;;12.11;64.88;96389.66;5012014;28;20180;-70
2022/05/29 01:28:13;;;;;;;2.73;2.00;;;;;;;12.09;65.27;96385.44;5012585;28;20198;-70
2022/05/29 01:30:50;;;;;;;2.57;1.80;;;;;;;11.96;66.21;96387.66;5012342;28;20274;-70
2022/05/29 01:33:15;;;;;;;4.40;2.50;;;;;;;12.11;65.38;96387.03;5010996;28;20191;-70
2022/05/29 01:36:02;;;;;;;2.40;1.93;;;;;;;12.14;65.44;96383.94;5012333;28;20304;-70
2022/05/29 01:38:37;;;;;;;1.73;1.63;;;;;;;12.19;65.16;96386.63;5012578;28;20183;-70
2022/05/29 01:41:24;;;;;;;3.07;1.90;;;;;;;12.16;63.95;96382.63;5012105;28;20678;-70
2022/05/29 01:44:03;;;;;;;5.60;1.83;;;;;;;11.98;64.98;96381.13;4983991;28;20188;-70
2022/05/29 01:46:34;;;;;;;4.60;1.93;;;;;;;11.97;63.51;96379.56;5004251;28;20599;-70
2022/05/29 01:49:22;;;;;;;9.80;1.70;;;;;;;12.07;63.08;96382.28;5012433;28;20266;-69
2022/05/29 01:52:07;;;;;;;2.53;1.90;;;;;;;12.04;63.08;96376.72;5015455;28;20199;-70
2022/05/29 01:54:40;;;;;;;3.17;1.60;;;;;;;12.13;61.89;96375.25;5016445;28;20264;-70
2022/05/29 01:57:16;;;;;;;3.27;1.97;;;;;;;11.96;60.28;96367.44;4998249;28;20183;-70
2022/05/29 01:59:59;;;;;;;1.97;1.80;;;;;;;11.97;59.99;96360.38;5015405;28;20187;-70
2022/05/29 02:03:02;;;;;;;2.60;1.97;;;;;;;12.11;59.68;96351.06;5015789;28;20278;-70
2022/05/29 02:05:37;;;;;;;2.73;1.80;;;;;;;12.26;60.16;96348.59;5015623;28;20187;-70
2022/05/29 02:08:12;;;;;;;2.13;1.60;;;;;;;12.33;62.28;96348.38;5015786;28;20171;-70
2022/05/29 02:10:45;;;;;;;2.83;1.60;;;;;;;11.95;63.73;96352.72;5015689;28;20632;-70
2022/05/29 02:13:39;;;;;;;2.93;1.80;;;;;;;12.09;63.81;96343.41;5015317;28;20171;-70
2022/05/29 02:16:08;;;;;;;3.73;2.00;;;;;;;11.96;65.26;96346.44;5015553;28;20310;-70
2022/05/29 02:18:49;;;;;;;3.00;1.77;;;;;;;12.29;64.11;96337.59;5014505;28;20219;-70
2022/05/29 02:21:19;;;;;;;4.50;1.60;;;;;;;11.82;65.91;96342.59;5015039;28;20297;-69
2022/05/29 02:23:55;;;;;;;3.77;1.87;;;;;;;11.93;65.53;96335.63;5015002;28;20188;-69
2022/05/29 02:26:25;;;;;;;2.63;1.70;;;;;;;12.01;66.08;96332.56;5015027;28;20274;-70
2022/05/29 02:28:57;;;;;;;2.20;1.93;;;;;;;11.66;65.62;96328.47;5015253;28;20275;-71
2022/05/29 02:31:23;;;;;;;1.70;1.60;;;;;;;11.70;65.25;96338.47;5014654;28;20262;-69
2022/05/29 02:34:04;;;;;;;4.53;1.90;;;;;;;11.34;60.13;96335.41;5003029;28;20279;-70
2022/05/29 02:36:38;;;;;;;1.90;1.60;;;;;;;11.65;59.50;96323.44;5014161;28;20623;-69
2022/05/29 02:39:28;;;;;;;2.57;1.40;;;;;;;11.81;60.82;96320.00;5015035;28;20683;-70
2022/05/29 02:42:05;;;;;;;3.03;1.73;;;;;;;11.72;60.96;96320.63;5015020;28;20294;-70
2022/05/29 02:45:04;;;;;;;4.80;1.53;;;;;;;11.79;60.75;96313.41;5010733;28;20627;-70
2022/05/29 02:47:45;;;;;;;1.90;1.60;;;;;;;11.68;61.42;96315.09;5015076;28;20188;-70
2022/05/29 02:50:10;;;;;;;2.27;2.07;;;;;;;11.72;60.99;96315.38;5005258;28;20616;-76
2022/05/29 02:52:36;;;;;;;3.67;1.90;;;;;;;11.64;61.47;96309.56;5015158;28;20266;-74
2022/05/29 02:55:01;;;;;;;3.40;1.93;;;;;;;11.67;61.91;96313.50;5015151;28;20172;-75
2022/05/29 02:57:27;;;;;;;3.23;2.00;;;;;;;11.44;62.89;96305.88;5015134;28;20191;-75
2022/05/29 03:00:02;;;;;;;4.23;1.90;;;;;;;11.41;63.53;96301.13;5014324;28;20508;-74
2022/05/29 03:02:49;;;;;;;1.90;1.80;;;;;;;11.37;63.99;96300.03;5013026;28;20546;-75
2022/05/29 03:06:02;;;;;;;2.40;1.50;;;;;;;11.49;64.43;96292.81;5014225;28;20183;-74
2022/05/29 03:08:52;;;;;;;2.17;1.70;;;;;;;11.63;64.05;96294.84;4961290;28;20195;-73
2022/05/29 03:11:26;;;;;;;3.37;1.77;;;;;;;11.50;64.32;96289.16;5014176;28;20695;-74
2022/05/29 03:14:03;;;;;;;2.20;1.80;;;;;;;11.36;64.61;96287.94;5014499;28;20179;-73
2022/05/29 03:17:02;;;;;;;4.83;2.27;;;;;;;11.46;64.23;96283.59;5014418;28;20179;-74
2022/05/29 03:19:55;;;;;;;2.97;1.90;;;;;;;11.56;64.08;96285.53;5014530;28;20226;-74
2022/05/29 03:22:50;;;;;;;2.60;1.63;;;;;;;11.34;65.38;96280.28;5014331;28;20179;-74
2022/05/29 03:25:23;;;;;;;1.67;1.50;;;;;;;11.35;64.91;96291.59;5014342;28;20184;-73
2022/05/29 03:27:51;;;;;;;5.27;1.93;;;;;;;11.32;65.33;96284.97;4996672;28;20179;-74
2022/05/29 03:30:19;;;;;;;4.93;2.23;;;;;;;11.46;64.12;96285.44;5013839;28;20199;-74
2022/05/29 03:32:48;;;;;;;2.93;2.10;;;;;;;11.42;64.50;96284.34;5008706;28;20370;-74
2022/05/29 03:35:27;;;;;;;4.10;1.60;;;;;;;11.41;63.93;96285.38;4985922;28;20514;-73
2022/05/29 03:37:53;;;;;;;1.93;1.53;;;;;;;11.41;63.38;96288.00;4995252;28;20187;-73
2022/05/29 03:40:20;;;;;;;1.60;1.50;;;;;;;11.24;63.42;96280.97;5013400;28;20203;-74
2022/05/29 03:42:45;;;;;;;2.97;1.50;;;;;;;11.11;64.38;96286.56;5013465;28;20183;-74
2022/05/29 03:45:12;;;;;;;3.37;1.70;;;;;;;11.43;63.08;96276.19;5005540;28;20655;-73
2022/05/29 03:47:38;;;;;;;3.33;2.00;;;;;;;11.64;62.44;96278.06;5013150;28;20207;-73
2022/05/29 03:50:05;;;;;;;2.53;1.50;;;;;;;11.63;62.47;96276.47;5013999;28;20253;-73
2022/05/29 03:52:31;;;;;;;1.70;1.60;;;;;;;11.69;62.97;96277.31;5013063;28;20188;-73
2022/05/29 03:54:58;;;;;;;4.67;1.40;;;;;;;11.35;63.80;96273.22;5013481;28;20210;-73
2022/05/29 03:57:23;;;;;;;2.40;1.47;;;;;;;11.29;63.89;96276.81;5012857;28;20187;-74
2022/05/29 03:59:48;;;;;;;1.80;1.60;;;;;;;11.47;63.39;96273.91;5013394;28;20582;-73
2022/05/29 04:02:14;;;;;;;2.97;1.67;;;;;;;11.34;64.53;96275.03;5013293;28;20715;-73
2022/05/29 04:04:39;;;;;;;1.67;1.50;;;;;;;11.21;65.14;96273.56;5013181;28;20594;-73
2022/05/29 04:07:05;;;;;;;3.13;1.50;;;;;;;11.30;64.81;96271.34;5012998;28;20275;-73
2022/05/29 04:12:15;;;;;;;3.53;1.80;;;;;;;11.09;65.38;96270.25;5013267;28;20183;-73
2022/05/29 04:14:42;;;;;;;2.83;1.97;;;;;;;11.07;65.26;96272.34;5012592;28;20187;-73
2022/05/29 04:17:11;;;;;;;1.90;1.70;;;;;;;11.00;65.10;96271.72;5013319;28;20187;-73
2022/05/29 04:19:37;;;;;;;2.03;1.87;;;;;;;11.03;65.25;96273.88;5012709;28;20234;-72
2022/05/29 04:22:13;;;;;;;2.00;1.90;;;;;;;10.91;66.96;96272.38;5012798;28;20262;-73
2022/05/29 04:24:38;;;;;;;3.40;1.93;;;;;;;10.99;68.60;96278.00;5012494;28;20224;-74
2022/05/29 04:27:07;;;;;;;4.90;2.17;;;;;;;10.87;68.88;96277.28;5011971;28;20594;-73
2022/05/29 04:29:32;;;;;;;3.27;2.00;;;;;;;10.99;69.81;96274.56;5012622;28;20262;-73
2022/05/29 04:34:42;;;;;;;2.23;1.93;;;;;;;10.67;69.80;96275.16;5011804;28;20226;-73
2022/05/29 04:37:07;;;;;;;2.40;2.10;;;;;;;10.57;70.63;96279.47;5004458;28;20184;-73
2022/05/29 04:39:35;;;;;;;5.57;2.03;;;;;;;10.51;71.68;96275.97;5012660;28;20266;-73
2022/05/29 04:42:00;;;;;;;2.63;1.90;;;;;;;10.45;70.79;96281.38;5012705;28;20207;-73
2022/05/29 04:44:28;;;;;;;3.27;2.00;;;;;;;10.58;70.62;96271.38;4998937;28;20194;-72
2022/05/29 04:46:54;;;;;;;5.73;1.93;;;;;;;10.29;71.36;96273.25;5010044;28;20183;-73
2022/05/29 04:49:19;;;;;;;4.63;2.07;;;;;;;10.44;72.16;96283.19;5012457;28;20206;-73
2022/05/29 04:51:44;;;;;;;3.40;2.00;;;;;;;10.31;72.08;96283.47;5012544;28;20274;-72
2022/05/29 04:54:11;;;;;;;4.17;1.90;;;;;;;10.34;72.49;96286.44;5012454;28;20214;-73
2022/05/29 04:56:36;;;;;;;5.23;2.30;;;;;;;10.26;73.43;96288.63;5012894;28;20237;-72
2022/05/29 04:59:02;;;;;;;3.97;2.43;;;;;;;10.33;74.09;96286.69;5012896;28;20187;-72
2022/05/29 05:01:27;;;;;;;4.47;2.10;;;;;;;10.34;74.23;96281.22;5012647;28;20704;-73
2022/05/29 05:03:52;;;;;;;2.80;1.90;;;;;;;10.17;72.75;96284.84;5012675;28;20211;-73
2022/05/29 05:06:18;;;;;;;4.90;2.10;;;;;;;10.24;73.96;96283.66;5012206;28;20259;-73
2022/05/29 05:08:43;;;;;;;3.00;2.30;;;;;;;10.43;74.04;96279.78;5013003;28;20625;-72
2022/05/29 05:11:08;;;;;;;2.67;2.47;;;;;;;10.41;73.94;96286.28;5012861;28;20643;-73
2022/05/29 05:13:34;;;;;;;3.17;2.60;;;;;;;10.28;75.45;96276.13;5012300;28;20290;-73
2022/05/29 05:16:01;;;;;;;2.53;2.10;;;;;;;10.18;76.05;96289.84;5012757;28;20230;-73
2022/05/29 05:18:26;;;;;;;2.73;2.30;;;;;;;10.03;83.47;96279.03;5011976;28;20293;-74
2022/05/29 05:20:51;;;;;;;2.93;2.60;;;;;;;9.73;88.29;96268.03;5011516;28;20677;-74
2022/05/29 05:23:17;;;;;;;2.63;2.43;;;;;;;9.55;91.71;96267.19;5013142;28;20581;-74
2022/05/29 05:25:43;;;;;;;5.57;3.10;;;;;;;9.19;95.58;96270.13;5014823;28;20257;-75
2022/05/29 05:28:09;;;;;;;4.80;3.37;;;;;;;8.81;97.65;96270.59;4999025;28;20195;-74
2022/05/29 05:30:34;;;;;;;5.17;3.73;;;;;;;8.94;100.00;96267.75;5016296;28;20195;-74
2022/05/29 05:33:00;;;;;;;4.80;3.13;;;;;;;9.06;100.00;96263.31;5016689;28;20274;-74
2022/05/29 05:35:25;;;;;;;4.90;3.70;;;;;;;9.08;100.00;96271.72;5016212;28;20302;-74
2022/05/29 05:37:51;;;;;;;8.97;3.80;;;;;;;9.15;100.00;96266.38;5004651;28;20187;-74
2022/05/29 05:40:16;;;;;;;5.47;3.90;;;;;;;9.46;100.00;96260.75;5016319;28;20214;-74
2022/05/29 05:42:41;;;;;;;5.53;3.77;;;;;;;9.50;100.00;96263.69;4994745;28;20188;-75
2022/05/29 05:45:10;;;;;;;5.33;4.10;;;;;;;9.47;100.00;96267.53;5010623;28;20558;-74
2022/05/29 05:47:36;;;;;;;5.53;3.93;;;;;;;9.36;100.00;96259.75;5016020;28;20187;-75
2022/05/29 05:50:01;;;;;;;3.93;3.60;;;;;;;9.41;100.00;96263.25;5016394;28;20290;-75
2022/05/29 05:52:27;;;;;;;4.40;3.43;;;;;;;9.31;100.00;96267.47;5016078;28;20183;-75
2022/05/29 05:54:52;;;;;;;6.17;3.70;;;;;;;9.53;100.00;96271.84;5016561;28;20214;-74
2022/05/29 05:57:18;;;;;;;6.43;4.40;;;;;;;9.54;99.85;96276.06;5016425;28;20184;-74
2022/05/29 05:59:44;;;;;;;7.60;3.80;;;;;;;9.67;98.31;96277.63;5016245;28;20600;-74
2022/05/29 06:02:10;;;;;;;4.30;3.30;;;;;;;9.80;98.05;96276.56;5015710;28;20297;-75
2022/05/29 06:04:37;;;;;;;6.37;3.50;;;;;;;9.92;96.32;96277.28;5016080;28;20198;-75
2022/05/29 06:07:03;;;;;;;5.47;3.60;;;;;;;9.93;95.97;96268.41;5015940;28;20183;-75
2022/05/29 06:09:29;;;;;;;5.17;3.07;;;;;;;9.99;95.62;96267.47;5015657;28;20186;-73
2022/05/29 06:11:55;;;;;;;4.70;3.10;;;;;;;10.33;95.20;96274.38;5015603;28;20191;-73
2022/05/29 06:14:21;;;;;;;3.20;2.80;;;;;;;10.12;91.52;96264.56;5015491;28;20191;-73
2022/05/29 06:16:46;;;;;;;3.73;2.60;;;;;;;10.16;93.56;96268.31;5015424;28;20278;-73
2022/05/29 06:19:12;;;;;;;4.20;2.93;;;;;;;10.38;91.74;96277.06;5015687;28;20235;-73
2022/05/29 06:21:37;;;;;;;7.10;2.93;;;;;;;11.14;87.90;96277.41;5014578;28;20207;-74
2022/05/29 06:24:03;;;;;;;5.27;2.70;;;;;;;11.21;82.73;96281.44;5015271;28;20676;-74
2022/05/29 06:26:28;;;;;;;3.03;2.50;;;;;;;11.15;81.55;96281.59;5015355;28;20195;-74
2022/05/29 06:28:54;;;;;;;4.67;2.50;;;;;;;11.56;79.20;96286.34;5015821;28;20246;-72
2022/05/29 06:31:19;;;;;;;2.43;2.10;;;;;;;11.74;79.63;96282.66;5014784;28;20563;-74
2022/05/29 06:33:45;;;;;;;3.30;2.20;;;;;;;11.84;77.63;96290.63;5014684;28;20553;-76
2022/05/29 06:36:17;;;;;;;4.17;1.90;;;;;;;11.91;76.13;96293.06;4992923;28;20669;-74
2022/05/29 06:38:47;;;;;;;5.03;1.90;;;;;;;12.03;73.98;96291.88;5003592;28;20254;-74
2022/05/29 06:41:15;;;;;;;5.47;1.77;;;;;;;11.94;74.74;96301.22;5015098;28;20207;-74
2022/05/29 06:43:40;;;;;;;2.83;1.57;;;;;;;12.08;73.93;96296.41;4999594;28;20196;-74
2022/05/29 06:46:07;;;;;;;4.90;2.00;;;;;;;11.89;75.33;96290.69;5014403;28;20184;-74
2022/05/29 06:48:34;;;;;;;4.83;1.87;;;;;;;11.79;72.65;96300.28;5014768;28;20194;-74
2022/05/29 06:51:11;;;;;;;1.70;1.60;;;;;;;11.73;73.21;96299.44;5014822;28;20222;-74
2022/05/29 06:53:37;;;;;;;2.80;2.40;;;;;;;11.75;72.72;96297.38;5013776;28;20199;-73
2022/05/29 06:56:05;;;;;;;3.13;1.93;;;;;;;11.79;72.79;96298.44;5014560;28;20183;-74
2022/05/29 06:58:31;;;;;;;2.20;1.70;;;;;;;11.96;73.28;96290.50;5014785;28;20193;-73
2022/05/29 07:07:04;;;;;;;2.97;2.00;;;;;;;11.74;73.59;96297.59;5014999;28;20218;-74
2022/05/29 07:09:24;;;;;;;2.20;2.00;;;;;;;11.80;72.65;96296.63;5012054;28;20199;-74
2022/05/29 07:11:55;;;;;;;2.97;1.97;;;;;;;11.77;72.16;96297.09;5014443;28;20184;-74
2022/05/29 07:14:21;;;;;;;2.40;1.97;;;;;;;11.86;72.57;96303.53;4983079;28;20176;-74
2022/05/29 07:16:47;;;;;;;2.20;1.70;;;;;;;11.69;71.83;96306.19;5014472;28;20658;-74
2022/05/29 07:19:13;;;;;;;5.90;2.23;;;;;;;11.89;71.02;96303.00;4996433;28;20235;-71
2022/05/29 07:21:41;;;;;;;7.60;2.40;;;;;;;11.51;71.15;96304.66;5014217;28;20210;-72
2022/05/29 07:24:07;;;;;;;4.40;1.63;;;;;;;11.19;73.04;96301.09;5014214;28;20282;-72
2022/05/29 07:26:33;;;;;;;2.13;1.80;;;;;;;11.31;72.42;96311.47;5014057;28;20183;-71
2022/05/29 07:28:58;;;;;;;2.87;2.00;;;;;;;11.55;72.68;96302.31;5013951;28;20198;-70
2022/05/29 07:31:24;;;;;;;3.63;2.17;;;;;;;11.81;72.49;96308.72;5013950;28;20266;-71
2022/05/29 07:33:49;;;;;;;3.03;1.60;;;;;;;11.99;72.21;96308.38;5013722;28;20262;-71
2022/05/29 07:36:18;;;;;;;6.83;1.90;;;;;;;12.50;69.97;96314.91;5012305;28;20273;-71
2022/05/29 07:38:45;;;;;;;2.93;2.00;;;;;;;12.62;66.42;96312.91;5013224;28;20274;-71
2022/05/29 07:43:55;;;;;;;2.33;1.67;;;;;;;11.90;68.07;96313.28;4997817;28;20194;-71
2022/05/29 07:46:22;;;;;;;1.90;1.67;;;;;;;12.22;67.68;96315.16;5013721;28;20191;-72
2022/05/29 07:48:48;;;;;;;3.23;1.60;;;;;;;12.18;65.72;96320.13;5012648;28;20570;-75
2022/05/29 07:51:13;;;;;;;3.00;1.67;;;;;;;12.17;65.62;96320.38;5013835;28;20190;-72
2022/05/29 07:53:39;;;;;;;2.67;1.37;;;;;;;12.06;66.90;96307.16;5013433;28;20206;-73
2022/05/29 07:56:05;;;;;;;5.53;1.70;;;;;;;12.19;66.73;96311.22;5013473;28;20194;-72
2022/05/29 07:58:33;;;;;;;3.87;1.80;;;;;;;12.41;65.27;96309.31;5013005;28;20558;-73
2022/05/29 08:00:59;;;;;;;3.27;1.50;;;;;;;12.42;66.30;96316.19;5012960;28;20195;-73
2022/05/29 08:03:24;;;;;;;3.47;1.80;;;;;;;12.16;67.03;96318.78;5013344;28;20221;-71
2022/05/29 08:05:50;;;;;;;2.50;1.60;;;;;;;12.90;66.11;96322.34;5013481;28;20211;-72
2022/05/29 08:08:16;;;;;;;2.00;1.53;;;;;;;12.93;64.94;96318.41;5013083;28;20636;-73
2022/05/29 08:10:43;;;;;;;4.57;1.60;;;;;;;13.32;64.68;96315.25;5013488;28;20225;-77
2022/05/29 08:13:09;;;;;;;4.97;1.90;;;;;;;13.33;64.88;96322.13;5013488;28;20183;-69
2022/05/29 08:15:36;;;;;;;2.07;1.73;;;;;;;13.50;63.27;96332.47;5014032;28;20183;-69
2022/05/29 08:18:02;;;;;;;2.07;1.90;;;;;;;12.95;62.79;96322.38;5027679;28;20229;-68
2022/05/29 08:20:29;;;;;;;5.00;1.80;;;;;;;12.94;63.48;96328.66;5002008;28;20214;-68
2022/05/29 08:22:54;;;;;;;5.40;1.83;;;;;;;12.69;64.93;96321.41;5013258;28;20210;-68
2022/05/29 08:30:52;;;;;;;2.27;1.60;;;;;;;13.05;63.63;96317.16;5012260;28;20230;-70
2022/05/29 08:33:21;;;;;;;4.87;1.70;;;;;;;12.96;63.90;96321.31;5012018;28;20195;-68
2022/05/29 08:38:14;;;;;;;2.58;1.90;;;;;;;13.39;62.06;96322.94;5068343;28;20269;-69
2022/05/29 08:40:49;;;;;;;2.93;1.80;;;;;;;13.22;62.65;96328.38;5069632;28;20679;-68
2022/05/29 08:43:31;;;;;;;6.23;1.87;;;;;;;13.77;61.56;96316.50;5066678;28;20582;-68
2022/05/29 08:46:00;;;;;;;2.43;1.57;;;;;;;14.33;59.42;96319.31;5069356;28;20187;-70
2022/05/29 08:48:27;;;;;;;4.10;2.10;;;;;;;13.85;60.82;96326.56;5068896;28;20174;-69
2022/05/29 08:51:13;;;;;;;7.03;2.20;;;;;;;13.81;59.68;96327.34;5070018;28;20197;-68
2022/05/29 08:54:06;;;;;;;3.30;1.73;;;;;;;14.06;58.90;96327.41;5069330;28;20711;-68
2022/05/29 08:57:05;;;;;;;3.20;1.77;;;;;;;13.48;60.57;96325.88;5068266;28;20204;-68
2022/05/29 08:59:52;;;;;;;2.20;1.73;;;;;;;13.88;59.03;96323.41;5067176;28;20200;-69
2022/05/29 09:02:40;;;;;;;3.93;2.00;;;;;;;13.80;59.14;96323.13;5066886;28;20211;-68
2022/05/29 09:05:38;;;;;;;3.00;1.80;;;;;;;14.04;58.65;96322.41;5067101;28;20182;-69
2022/05/29 09:08:11;;;;;;;2.50;1.73;;;;;;;13.59;60.61;96309.09;5065560;28;20260;-69
2022/05/29 09:10:46;;;;;;;3.73;1.80;;;;;;;13.36;61.48;96314.75;5068310;28;20174;-69
2022/05/29 09:13:20;;;;;;;3.60;1.83;;;;;;;13.22;61.55;96312.56;5064948;28;20562;-69
2022/05/29 09:15:56;;;;;;;2.77;1.80;;;;;;;13.03;63.22;96311.38;5067467;28;20174;-69
2022/05/29 09:18:31;;;;;;;5.33;2.03;;;;;;;13.07;62.89;96307.19;5067121;28;20177;-69
2022/05/29 09:21:05;;;;;;;4.53;1.80;;;;;;;12.78;64.52;96312.00;5068495;28;20227;-69
2022/05/29 09:23:35;;;;;;;3.87;2.03;;;;;;;13.04;64.12;96305.06;5068629;28;20188;-68
2022/05/29 09:26:06;;;;;;;6.43;2.30;;;;;;;12.59;64.95;96315.25;5067095;28;20186;-70
2022/05/29 09:28:41;;;;;;;4.87;1.97;;;;;;;13.21;62.95;96302.28;5068484;28;20182;-68
2022/05/29 09:31:20;;;;;;;5.43;2.33;;;;;;;12.62;65.29;96306.88;5065639;28;20181;-69
2022/05/29 09:33:47;;;;;;;4.30;1.87;;;;;;;13.09;63.61;96299.84;5067618;28;20184;-70
2022/05/29 09:37:06;;;;;;;5.63;2.03;;;;;;;12.81;64.38;96315.97;5069935;28;20259;-70
2022/05/29 09:39:43;;;;;;;6.20;1.97;;;;;;;13.16;63.59;96313.59;4986367;28;20381;-70
2022/05/29 09:42:17;;;;;;;6.17;1.90;;;;;;;13.90;62.35;96310.78;5068783;28;20205;-73
2022/05/29 09:45:12;;;;;;;5.03;2.00;;;;;;;13.10;64.70;96313.78;5088348;28;20174;-70
2022/05/29 09:50:38;;;;;;;5.20;2.07;;;;;;;13.40;64.21;96311.34;5074923;28;20184;-68
2022/05/29 09:53:14;;;;;;;3.17;1.83;;;;;;;13.48;64.93;96316.16;5074862;28;20263;-69
2022/05/29 09:55:49;;;;;;;5.53;2.13;;;;;;;13.67;64.93;96319.91;5074864;28;20165;-69
2022/05/29 09:58:20;;;;;;;6.80;2.30;;;;;;;13.46;65.28;96326.13;5069397;28;20526;-69
2022/05/29 10:01:25;;;;;;;4.77;1.67;;;;;;;12.91;66.08;96327.34;5067552;28;20646;-69
2022/05/29 10:03:53;;;;;;;4.53;2.03;;;;;;;12.48;65.53;96324.91;5056409;28;20204;-70
2022/05/29 10:06:21;;;;;;;7.07;2.20;;;;;;;12.81;67.26;96329.91;5074685;28;20703;-69
2022/05/29 10:08:49;;;;;;;9.73;2.13;;;;;;;13.00;66.20;96324.25;5074615;28;20200;-69
2022/05/29 10:11:31;;;;;;;5.87;1.87;;;;;;;12.42;66.89;96331.16;5075140;28;20185;-68
2022/05/29 10:14:00;;;;;;;5.73;2.13;;;;;;;12.35;66.60;96333.19;5074752;28;20256;-68
2022/05/29 10:16:35;;;;;;;2.30;1.80;;;;;;;12.15;68.33;96325.88;5074546;28;20201;-69
2022/05/29 10:19:02;;;;;;;6.80;1.97;;;;;;;11.80;67.77;96323.66;5067214;28;20181;-68
2022/05/29 10:21:36;;;;;;;4.80;2.13;;;;;;;12.04;67.33;96326.81;5073112;28;20186;-68
2022/05/29 10:24:37;;;;;;;3.00;1.90;;;;;;;12.08;66.78;96325.28;5074559;28;20198;-68
2022/05/29 10:27:20;;;;;;;5.70;2.10;;;;;;;12.14;66.34;96321.69;4990945;28;20726;-68
2022/05/29 10:29:52;;;;;;;4.10;1.80;;;;;;;11.89;67.03;96329.28;5054452;28;20193;-68
2022/05/29 10:32:25;;;;;;;3.50;2.00;;;;;;;11.84;66.60;96335.28;5074301;28;20177;-67
2022/05/29 10:34:52;;;;;;;4.87;1.80;;;;;;;11.39;67.51;96324.16;5072577;28;20193;-68
2022/05/29 10:37:39;;;;;;;3.43;1.87;;;;;;;11.57;66.10;96327.31;5071240;28;20294;-68
2022/05/29 10:40:25;;;;;;;3.83;2.10;;;;;;;11.47;67.45;96334.25;5072931;28;20177;-70
2022/05/29 10:42:54;;;;;;;4.40;2.10;;;;;;;11.57;69.02;96331.75;5069938;28;20208;-68
2022/05/29 10:45:43;;;;;;;6.10;2.00;;;;;;;11.78;72.51;96332.81;5059082;28;20177;-69
2022/05/29 10:48:23;;;;;;;4.83;2.20;;;;;;;11.64;74.48;96333.19;5072146;28;21647;-69
2022/05/29 10:51:07;;;;;;;3.67;2.37;;;;;;;11.59;80.08;96337.56;5060645;28;20170;-70
2022/05/29 10:53:52;;;;;;;5.13;2.73;;;;;;;11.40;81.99;96344.13;5062762;28;20181;-68
2022/05/29 10:56:38;;;;;;;4.90;2.53;;;;;;;10.80;90.92;96345.63;5073234;28;20243;-67
2022/05/29 10:59:13;;;;;;;8.20;3.30;;;;;;;10.77;96.73;96340.84;5070838;28;20181;-69
2022/05/29 11:05:07;;;;;;;4.57;3.20;;;;;;;10.60;100.00;96354.97;5073075;28;20291;-68
2022/05/29 11:07:46;;;;;;;6.70;3.40;;;;;;;10.43;100.00;96345.28;4986704;28;20224;-68
2022/05/29 11:10:35;;;;;;;6.60;3.70;;;;;;;10.78;100.00;96352.94;5051360;28;20205;-68
2022/05/29 11:13:21;;;;;;;5.07;3.30;;;;;;;11.02;100.00;96347.53;5058706;28;20641;-68
2022/05/29 11:15:58;;;;;;;6.30;3.20;;;;;;;11.53;100.00;96357.72;5071450;28;20169;-68
2022/05/29 11:18:48;;;;;;;3.77;2.37;;;;;;;10.21;94.06;96348.78;5073493;28;20219;-67
2022/05/29 11:21:43;;;;;;;4.33;2.50;;;;;;;9.79;99.89;96350.88;5073325;28;20584;-67
2022/05/29 11:24:23;;;;;;;2.63;2.43;;;;;;;9.87;97.14;96358.34;5073213;28;20626;-72
2022/05/29 11:27:22;;;;;;;6.47;3.03;;;;;;;9.95;99.83;96350.91;5071996;28;20231;-68
2022/05/29 11:30:02;;;;;;;6.77;2.70;;;;;;;10.14;100.00;96348.13;5072602;28;20177;-68
2022/05/29 11:32:55;;;;;;;4.07;2.50;;;;;;;10.62;99.54;96350.31;5057603;28;20193;-69
2022/05/29 11:35:46;;;;;;;3.70;2.63;;;;;;;10.91;100.00;96343.16;5070686;28;20189;-66
2022/05/29 11:38:26;;;;;;;3.23;2.70;;;;;;;11.45;100.00;96342.38;5072317;28;20255;-69
2022/05/29 11:41:06;;;;;;;4.43;2.40;;;;;;;11.64;98.68;96341.06;5070648;28;20692;-68
2022/05/29 11:43:43;;;;;;;5.23;2.67;;;;;;;10.56;97.36;96340.75;5072538;28;20205;-67
2022/05/29 11:52:02;;;;;;;2.23;1.97;;;;;;;10.11;95.71;96336.28;5072079;28;20183;-68
2022/05/29 11:54:40;;;;;;;2.53;2.20;;;;;;;10.79;100.00;96335.38;5068920;28;20192;-69
2022/05/29 11:57:34;;;;;;;3.80;2.53;;;;;;;10.81;99.22;96330.69;5052683;28;20208;-68
2022/05/29 12:00:09;;;;;;;6.47;2.70;;;;;;;11.66;99.30;96330.28;4983465;28;20295;-69
2022/05/29 12:02:59;;;;;;;3.43;2.30;;;;;;;10.61;92.26;96328.53;5071495;28;20226;-68
2022/05/29 12:05:33;;;;;;;3.90;2.20;;;;;;;10.82;94.19;96333.06;5072075;28;20229;-70
2022/05/29 12:08:14;;;;;;;4.70;2.70;;;;;;;10.81;96.13;96320.97;5072170;28;20185;-67
2022/05/29 12:11:04;;;;;;;1.67;1.57;;;;;;;11.08;94.34;96318.53;5064709;28;20507;-67
2022/05/29 12:13:51;;;;;;;4.20;2.30;;;;;;;11.85;93.02;96312.44;5071546;28;20185;-69
2022/05/29 12:16:23;;;;;;;2.87;2.43;;;;;;;11.71;91.28;96311.97;5071942;28;20193;-68
2022/05/29 12:18:52;;;;;;;2.60;1.87;;;;;;;11.73;88.02;96320.44;5069349;28;20185;-68
2022/05/29 12:21:34;;;;;;;8.27;2.10;;;;;;;11.46;87.28;96303.78;5071924;28;20189;-69
2022/05/29 12:24:02;;;;;;;3.23;2.00;;;;;;;11.14;82.92;96311.53;5071726;28;20260;-70
2022/05/29 12:27:03;;;;;;;2.03;1.60;;;;;;;11.22;85.42;96313.72;5072022;28;20181;-69
2022/05/29 12:29:55;;;;;;;4.47;2.00;;;;;;;11.62;82.94;96306.38;5031230;28;20193;-67
2022/05/29 12:32:30;;;;;;;3.53;1.77;;;;;;;11.59;80.81;96312.09;5071265;28;20252;-69
2022/05/29 12:34:57;;;;;;;4.57;1.80;;;;;;;10.81;85.97;96309.72;5071358;28;21041;-68